Time;durP1;ratioP1;P1;durP2;ratioP2;P2;SDS_P1;SDS_P2;PMS_P1;PMS_P2;Temp;Humidity;BMP_temperature;BMP_pressure;BME280_temperature;BME280_humidity;BME280_pressure;Samples;Min_cycle;Max_cycle;Signal;HPM_P1;HPM_P2
2023/10/08 00:00:49;;;;;;;6.40;4.15;;;;;;;12.73;nan;100476.81;4914855;29;20463;-77
2023/10/08 00:03:16;;;;;;;5.43;4.45;;;;;;;12.70;nan;100472.59;4915277;29;20281;-76
2023/10/08 00:05:42;;;;;;;8.57;5.50;;;;;;;12.68;nan;100476.25;4916791;29;20413;-76
2023/10/08 00:08:11;;;;;;;7.17;4.13;;;;;;;12.65;nan;100476.44;4914768;29;20198;-75
2023/10/08 00:10:41;;;;;;;8.02;4.07;;;;;;;12.62;nan;100477.44;4918524;29;20475;-76
2023/10/08 00:13:09;;;;;;;8.73;4.70;;;;;;;12.58;nan;100484.69;4915737;29;20213;-77
2023/10/08 00:15:36;;;;;;;9.70;4.50;;;;;;;12.57;nan;100485.63;4917199;29;20696;-76
2023/10/08 00:18:05;;;;;;;5.10;3.05;;;;;;;12.59;nan;100481.13;4912688;29;20569;-75
2023/10/08 00:20:42;;;;;;;9.23;4.68;;;;;;;12.61;nan;100481.88;4918343;29;20383;-78
2023/10/08 00:23:09;;;;;;;9.23;3.72;;;;;;;12.64;nan;100488.75;4915754;29;20218;-76
2023/10/08 00:25:40;;;;;;;6.95;4.07;;;;;;;12.67;nan;100495.66;4918844;29;20242;-78
2023/10/08 00:28:10;;;;;;;7.38;4.03;;;;;;;12.67;nan;100493.84;4918636;29;20198;-77
2023/10/08 00:30:38;;;;;;;6.90;4.55;;;;;;;12.67;nan;100487.72;4916461;29;20208;-78
2023/10/08 00:33:04;;;;;;;6.25;3.60;;;;;;;12.66;nan;100481.59;4918047;29;20202;-76
2023/10/08 00:35:30;;;;;;;6.40;3.33;;;;;;;12.64;nan;100475.59;4914901;29;20205;-79
2023/10/08 00:38:00;;;;;;;5.23;3.90;;;;;;;12.60;nan;100471.41;4914800;29;20194;-76
2023/10/08 00:40:38;;;;;;;8.52;4.45;;;;;;;12.55;nan;100466.41;4914661;29;20692;-76
2023/10/08 00:43:10;;;;;;;5.63;3.60;;;;;;;12.54;nan;100472.63;4916944;29;20305;-76
2023/10/08 00:45:43;;;;;;;4.70;3.22;;;;;;;12.52;nan;100476.28;4916515;29;20227;-79
2023/10/08 00:48:17;;;;;;;6.97;4.05;;;;;;;12.50;nan;100465.84;4915482;29;20225;-78
2023/10/08 00:50:43;;;;;;;6.28;3.85;;;;;;;12.48;nan;100457.16;4914984;29;20558;-76
2023/10/08 00:53:21;;;;;;;5.43;3.60;;;;;;;12.45;nan;100461.75;4905165;29;20292;-77
2023/10/08 00:55:53;;;;;;;5.68;3.78;;;;;;;12.41;nan;100461.09;4917342;29;20202;-76
2023/10/08 00:58:29;;;;;;;7.25;5.03;;;;;;;12.41;nan;100461.09;4918397;29;20280;-76
2023/10/08 01:01:00;;;;;;;4.38;3.35;;;;;;;12.40;nan;100456.78;4919333;29;20228;-77
2023/10/08 01:03:29;;;;;;;6.72;4.03;;;;;;;12.37;nan;100456.94;4915083;29;20496;-76
2023/10/08 01:05:57;;;;;;;4.85;3.92;;;;;;;12.34;nan;100460.59;4917107;29;20556;-77
2023/10/08 01:09:18;;;;;;;4.15;3.20;;;;;;;12.33;nan;100450.16;4921195;29;20214;-77
2023/10/08 01:11:45;;;;;;;4.45;2.95;;;;;;;12.30;nan;100451.16;4913329;29;20708;-77
2023/10/08 01:14:10;;;;;;;6.03;3.35;;;;;;;12.27;nan;100447.88;4919832;29;20213;-76
2023/10/08 01:16:36;;;;;;;5.53;3.30;;;;;;;12.25;nan;100447.94;4918598;29;20574;-78
2023/10/08 01:19:02;;;;;;;5.90;3.07;;;;;;;12.23;nan;100446.34;4915683;29;20203;-78
2023/10/08 01:21:34;;;;;;;5.53;3.95;;;;;;;12.23;nan;100456.88;4918361;29;20411;-75
2023/10/08 01:24:07;;;;;;;7.78;3.38;;;;;;;12.23;nan;100446.34;4913032;29;20218;-76
2023/10/08 01:26:33;;;;;;;9.40;3.90;;;;;;;12.23;nan;100443.69;4911063;29;20960;-76
2023/10/08 01:29:03;;;;;;;6.00;3.90;;;;;;;12.21;nan;100443.81;4913795;29;20300;-76
2023/10/08 01:31:29;;;;;;;6.55;3.55;;;;;;;12.20;nan;100447.34;4920701;29;20210;-76
2023/10/08 01:33:56;;;;;;;7.27;3.60;;;;;;;12.18;nan;100444.81;4918619;29;20210;-78
2023/10/08 01:36:25;;;;;;;6.63;4.80;;;;;;;12.09;nan;100445.31;4920021;29;20465;-76
2023/10/08 01:38:51;;;;;;;12.88;5.07;;;;;;;12.02;nan;100443.16;4918241;29;20209;-76
2023/10/08 01:41:29;;;;;;;6.00;3.97;;;;;;;11.95;nan;100442.63;4912560;29;20202;-75
2023/10/08 01:43:57;;;;;;;6.30;4.22;;;;;;;11.90;nan;100440.25;4918093;29;21047;-76
2023/10/08 01:46:23;;;;;;;6.13;4.18;;;;;;;11.80;nan;100438.19;4918350;29;20615;-76
2023/10/08 01:48:53;;;;;;;8.18;5.00;;;;;;;11.79;nan;100442.59;4919842;29;20217;-77
2023/10/08 01:51:37;;;;;;;9.27;4.28;;;;;;;11.77;nan;100441.81;4915069;29;20229;-79
2023/10/08 01:54:09;;;;;;;5.68;4.10;;;;;;;11.79;nan;100436.50;4918067;29;20220;-77
2023/10/08 01:56:36;;;;;;;11.25;4.25;;;;;;;11.78;nan;100434.81;4910038;29;20873;-78
2023/10/08 01:59:01;;;;;;;7.78;4.07;;;;;;;11.80;nan;100431.16;4914613;29;20214;-76
2023/10/08 02:01:28;;;;;;;5.57;4.37;;;;;;;11.82;nan;100436.31;4916153;29;20232;-76
2023/10/08 02:03:53;;;;;;;5.57;3.42;;;;;;;11.83;nan;100436.25;4919204;29;20661;-78
2023/10/08 02:06:20;;;;;;;6.43;4.20;;;;;;;11.82;nan;100442.44;4915848;29;20201;-76
2023/10/08 02:08:47;;;;;;;5.45;3.63;;;;;;;11.83;nan;100443.31;4915269;29;20261;-78
2023/10/08 02:11:15;;;;;;;6.07;3.40;;;;;;;11.83;nan;100443.31;4919948;29;20760;-75
2023/10/08 02:13:42;;;;;;;6.93;3.20;;;;;;;11.81;nan;100446.00;4918812;29;21025;-76
2023/10/08 02:16:07;;;;;;;6.50;3.50;;;;;;;11.79;nan;100442.59;4919497;29;20559;-76
2023/10/08 02:18:33;;;;;;;5.73;3.77;;;;;;;11.80;nan;100443.44;4920003;29;20657;-76
2023/10/08 02:20:58;;;;;;;7.33;2.73;;;;;;;11.78;nan;100446.19;4919423;29;20213;-76
2023/10/08 02:23:24;;;;;;;4.90;3.90;;;;;;;11.81;nan;100445.16;4918296;29;20764;-79
2023/10/08 02:25:50;;;;;;;7.70;3.47;;;;;;;11.81;nan;100440.75;4917585;29;20696;-76
2023/10/08 02:28:16;;;;;;;10.83;3.60;;;;;;;11.82;nan;100439.78;4915465;29;20210;-78
2023/10/08 02:30:44;;;;;;;5.38;3.28;;;;;;;11.80;nan;100436.41;4919999;29;20229;-77
2023/10/08 02:33:16;;;;;;;4.60;3.20;;;;;;;11.79;nan;100441.75;4919235;29;20238;-75
2023/10/08 02:35:45;;;;;;;5.20;2.72;;;;;;;11.77;nan;100444.47;4937918;23;20693;-78
2023/10/08 02:38:13;;;;;;;6.07;3.53;;;;;;;11.77;nan;100444.47;4914530;29;20896;-78
2023/10/08 02:40:44;;;;;;;7.28;2.80;;;;;;;11.78;nan;100440.06;4921968;29;20213;-78
2023/10/08 02:43:11;;;;;;;4.07;3.00;;;;;;;11.76;nan;100437.50;4921574;29;20241;-81
2023/10/08 02:45:38;;;;;;;6.43;3.55;;;;;;;11.73;nan;100443.78;4920300;29;20198;-81
2023/10/08 02:48:11;;;;;;;5.85;3.92;;;;;;;11.64;nan;100448.72;4918455;29;20212;-81
2023/10/08 02:50:39;;;;;;;5.90;3.28;;;;;;;11.51;nan;100444.13;4919665;29;20229;-80
2023/10/08 02:53:10;;;;;;;5.93;3.95;;;;;;;11.40;nan;100445.63;4915422;29;20209;-80
2023/10/08 02:55:46;;;;;;;5.53;3.40;;;;;;;11.29;nan;100435.69;4936998;28;20211;-80
2023/10/08 02:58:15;;;;;;;6.82;4.15;;;;;;;11.25;nan;100440.25;4935444;28;20197;-81
2023/10/08 03:00:42;;;;;;;6.15;3.50;;;;;;;11.28;nan;100447.97;4914190;29;20219;-81
2023/10/08 03:03:26;;;;;;;5.28;3.13;;;;;;;11.33;nan;100441.63;4920233;29;20977;-81
2023/10/08 03:05:52;;;;;;;6.88;3.70;;;;;;;11.37;nan;100437.88;4920356;29;20448;-81
2023/10/08 03:08:20;;;;;;;7.70;3.67;;;;;;;11.40;nan;100440.38;4914232;29;20209;-80
2023/10/08 03:10:56;;;;;;;6.13;4.47;;;;;;;11.40;nan;100435.97;4916919;29;20462;-80
2023/10/08 03:13:22;;;;;;;5.45;3.50;;;;;;;11.42;nan;100435.84;4921028;29;20201;-81
2023/10/08 03:18:35;;;;;;;11.18;4.28;;;;;;;11.46;nan;100426.88;4929576;28;20214;-80
2023/10/08 03:21:06;;;;;;;5.65;3.83;;;;;;;11.42;nan;100427.97;4909671;29;20389;-81
2023/10/08 03:23:35;;;;;;;6.70;2.65;;;;;;;11.40;nan;100424.59;4920399;29;20212;-81
2023/10/08 03:26:10;;;;;;;6.28;3.50;;;;;;;11.40;nan;100435.13;4919606;29;20216;-80
2023/10/08 03:28:41;;;;;;;4.35;2.80;;;;;;;11.38;nan;100429.09;4920528;29;20435;-80
2023/10/08 03:31:14;;;;;;;4.93;2.95;;;;;;;11.37;nan;100422.09;4920629;29;20201;-81
2023/10/08 03:33:39;;;;;;;3.97;3.10;;;;;;;11.33;nan;100413.53;4920455;29;20190;-80
2023/10/08 03:36:14;;;;;;;6.70;3.23;;;;;;;11.30;nan;100425.06;4917354;29;20484;-82
2023/10/08 03:39:10;;;;;;;5.32;3.10;;;;;;;11.27;nan;100414.72;4916018;29;20332;-81
2023/10/08 03:41:32;;;;;;;6.22;3.13;;;;;;;11.25;nan;100421.84;4916026;29;20221;-81
2023/10/08 03:44:12;;;;;;;6.90;4.00;;;;;;;11.21;nan;100417.69;4921925;29;20196;-80
2023/10/08 03:46:39;;;;;;;5.43;2.90;;;;;;;11.20;nan;100423.84;4919470;29;20249;-81
2023/10/08 03:49:15;;;;;;;5.47;3.78;;;;;;;11.21;nan;100425.56;4919090;29;20601;-80
2023/10/08 03:51:42;;;;;;;5.53;3.53;;;;;;;11.21;nan;100424.72;4917228;29;20197;-80
2023/10/08 03:54:15;;;;;;;5.00;2.88;;;;;;;11.21;nan;100430.84;4919545;29;20588;-80
2023/10/08 03:56:45;;;;;;;3.40;3.10;;;;;;;11.21;nan;100430.00;4919675;29;20218;-81
2023/10/08 03:59:24;;;;;;;9.88;3.60;;;;;;;11.16;nan;100426.75;4922201;29;20285;-80
2023/10/08 04:01:54;;;;;;;6.30;2.88;;;;;;;11.13;nan;100426.91;4919469;29;20218;-77
2023/10/08 04:04:30;;;;;;;4.72;2.78;;;;;;;11.14;nan;100429.44;4915887;29;20708;-77
2023/10/08 04:07:24;;;;;;;5.35;2.53;;;;;;;11.14;nan;100437.34;4915340;29;20257;-78
2023/10/08 04:09:42;;;;;;;3.15;2.45;;;;;;;11.16;nan;100432.84;4918811;29;20202;-77
2023/10/08 04:12:10;;;;;;;3.85;3.15;;;;;;;11.18;nan;100438.00;4917159;29;20668;-77
2023/10/08 04:14:36;;;;;;;4.55;2.40;;;;;;;11.15;nan;100423.28;4918800;29;20696;-79
2023/10/08 04:17:02;;;;;;;3.20;2.63;;;;;;;11.14;nan;100421.56;4918466;29;20213;-80
2023/10/08 04:19:29;;;;;;;7.50;4.38;;;;;;;11.14;nan;100424.19;4917693;29;20498;-80
2023/10/08 04:21:56;;;;;;;3.35;2.58;;;;;;;11.14;nan;100429.44;4915774;29;20254;-80
2023/10/08 04:24:35;;;;;;;5.50;3.13;;;;;;;11.13;nan;100433.03;4920692;29;20301;-79
2023/10/08 04:27:09;;;;;;;6.68;3.65;;;;;;;11.12;nan;100436.56;4917676;29;20197;-79
2023/10/08 04:29:36;;;;;;;6.30;3.70;;;;;;;11.10;nan;100432.31;4919903;29;20217;-80
2023/10/08 04:32:07;;;;;;;5.20;3.42;;;;;;;11.04;nan;100433.47;4922355;29;20449;-79
2023/10/08 04:34:33;;;;;;;7.70;3.72;;;;;;;11.01;nan;100433.66;4923695;29;20249;-80
2023/10/08 04:37:00;;;;;;;8.10;3.40;;;;;;;10.95;nan;100429.56;4919421;29;20500;-79
2023/10/08 04:39:32;;;;;;;7.75;3.65;;;;;;;10.91;nan;100427.16;4921116;29;20709;-80
2023/10/08 04:42:10;;;;;;;4.05;2.55;;;;;;;10.87;nan;100425.63;4923263;29;20209;-79
2023/10/08 04:44:40;;;;;;;6.00;3.55;;;;;;;10.87;nan;100428.28;4920798;29;20511;-80
2023/10/08 04:47:09;;;;;;;4.05;3.05;;;;;;;10.88;nan;100429.97;4920089;29;20229;-79
2023/10/08 04:49:37;;;;;;;5.60;2.85;;;;;;;10.88;nan;100429.97;4923705;29;20416;-79
2023/10/08 04:52:18;;;;;;;4.15;3.20;;;;;;;10.87;nan;100428.28;4922170;29;20277;-79
2023/10/08 04:54:51;;;;;;;5.13;4.10;;;;;;;10.89;nan;100426.41;4921541;29;20296;-79
2023/10/08 04:57:18;;;;;;;6.85;4.85;;;;;;;10.91;nan;100421.91;4924243;29;20204;-79
2023/10/08 04:59:57;;;;;;;5.70;3.22;;;;;;;10.94;nan;100427.03;4927146;29;20201;-79
2023/10/08 05:02:48;;;;;;;4.63;3.70;;;;;;;10.97;nan;100430.34;4925652;29;20881;-80
2023/10/08 05:15:37;;;;;;;5.35;4.15;;;;;;;10.96;nan;100447.03;4920687;29;21164;-80
2023/10/08 05:18:23;;;;;;;6.18;3.88;;;;;;;10.95;nan;100447.13;4914239;29;20252;-79
2023/10/08 05:25:58;;;;;;;3.88;2.75;;;;;;;10.80;nan;100419.84;4923232;29;20206;-79
2023/10/08 05:28:25;;;;;;;6.18;3.55;;;;;;;10.78;nan;100429.59;4924199;29;20210;-79
2023/10/08 05:30:55;;;;;;;4.55;3.80;;;;;;;10.72;nan;100427.25;4922540;29;20198;-80
2023/10/08 05:33:24;;;;;;;5.90;3.15;;;;;;;10.67;nan;100418.78;4922677;29;20209;-80
2023/10/08 05:35:54;;;;;;;8.55;3.50;;;;;;;10.62;nan;100426.91;4922920;29;20210;-79
2023/10/08 05:38:48;;;;;;;4.53;3.08;;;;;;;10.55;nan;100428.13;4916914;29;20210;-79
2023/10/08 05:41:27;;;;;;;4.40;2.88;;;;;;;10.52;nan;100423.03;4922353;29;20269;-79
2023/10/08 05:44:14;;;;;;;5.25;2.72;;;;;;;10.52;nan;100420.41;4926740;28;20285;-80
2023/10/08 05:46:49;;;;;;;4.28;2.60;;;;;;;10.54;nan;100432.53;4922205;29;20202;-79
2023/10/08 05:59:52;;;;;;;4.10;2.72;;;;;;;10.66;nan;100428.44;4925200;29;20205;-79
2023/10/08 06:13:06;;;;;;;3.40;3.10;;;;;;;10.83;nan;100456.50;4925020;29;20217;-80
2023/10/08 06:16:05;;;;;;;7.47;3.80;;;;;;;10.88;nan;100446.56;4924038;29;20451;-79
2023/10/08 06:18:32;;;;;;;7.72;3.53;;;;;;;10.92;nan;100460.44;4917381;29;20573;-80
2023/10/08 06:21:09;;;;;;;4.70;2.83;;;;;;;10.98;nan;100460.09;4917326;29;20202;-79
2023/10/08 06:23:38;;;;;;;6.10;3.83;;;;;;;11.03;nan;100455.47;4918994;29;20213;-78
2023/10/08 06:28:36;;;;;;;5.15;3.03;;;;;;;11.14;nan;100461.00;4919548;29;20202;-79
2023/10/08 06:31:13;;;;;;;3.15;2.35;;;;;;;11.18;nan;100470.44;4920087;29;20281;-79
2023/10/08 06:33:40;;;;;;;6.28;3.42;;;;;;;11.19;nan;100474.75;4923144;29;20282;-79
2023/10/08 06:36:13;;;;;;;6.05;3.92;;;;;;;11.18;nan;100480.09;4923295;29;20944;-79
2023/10/08 06:38:39;;;;;;;3.63;2.85;;;;;;;11.15;nan;100483.75;4914339;29;20267;-79
2023/10/08 06:41:17;;;;;;;7.45;4.20;;;;;;;11.13;nan;100493.50;4921735;29;20201;-79
2023/10/08 06:43:49;;;;;;;6.70;3.90;;;;;;;11.17;nan;100502.91;4917558;29;20229;-79
2023/10/08 06:46:18;;;;;;;5.35;3.20;;;;;;;11.20;nan;100502.75;4919566;29;20224;-79
2023/10/08 06:48:45;;;;;;;5.30;3.15;;;;;;;11.25;nan;100508.63;4922616;29;20269;-79
2023/10/08 06:51:17;;;;;;;7.28;4.07;;;;;;;11.33;nan;100510.00;4918538;29;20700;-79
2023/10/08 06:53:47;;;;;;;3.75;3.45;;;;;;;11.44;nan;100515.56;4919510;29;20201;-79
2023/10/08 06:56:16;;;;;;;3.97;3.13;;;;;;;11.59;nan;100503.38;4921015;29;20217;-79
2023/10/08 06:58:52;;;;;;;5.55;4.35;;;;;;;11.78;nan;100513.78;4921850;29;20608;-79
2023/10/08 07:01:22;;;;;;;4.70;3.10;;;;;;;11.95;nan;100505.81;4923480;29;20201;-79
2023/10/08 07:03:51;;;;;;;6.68;4.00;;;;;;;12.13;nan;100506.59;4921241;29;20210;-79
2023/10/08 07:06:25;;;;;;;6.47;4.05;;;;;;;12.29;nan;100502.16;4921792;29;20233;-79
2023/10/08 07:08:55;;;;;;;5.00;3.30;;;;;;;12.42;nan;100509.34;4921466;29;20272;-79
2023/10/08 07:11:22;;;;;;;6.65;3.33;;;;;;;12.54;nan;100506.03;4921408;29;20475;-80
2023/10/08 07:13:50;;;;;;;6.55;3.28;;;;;;;12.68;nan;100511.34;4919712;29;20202;-79
2023/10/08 07:16:17;;;;;;;7.47;3.70;;;;;;;12.82;nan;100505.28;4923362;29;20233;-78
2023/10/08 07:18:54;;;;;;;8.45;4.10;;;;;;;12.96;nan;100505.34;4921046;29;20252;-79
2023/10/08 07:21:28;;;;;;;10.00;4.20;;;;;;;13.10;nan;100512.41;4920360;29;20296;-78
2023/10/08 07:23:56;;;;;;;8.35;5.32;;;;;;;13.23;nan;100502.84;4922829;29;20534;-78
2023/10/08 07:26:26;;;;;;;5.88;3.97;;;;;;;13.40;nan;100503.63;4921692;29;20520;-79
2023/10/08 07:28:52;;;;;;;10.88;4.63;;;;;;;13.55;nan;100507.94;4921330;29;20210;-78
2023/10/08 07:31:20;;;;;;;9.35;5.63;;;;;;;13.71;nan;100502.56;4922588;29;20292;-78
2023/10/08 07:34:15;;;;;;;6.85;4.30;;;;;;;13.86;nan;100492.84;4920768;29;20287;-79
2023/10/08 07:36:42;;;;;;;5.15;3.92;;;;;;;14.08;nan;100492.31;4918795;29;20709;-78
2023/10/08 07:39:15;;;;;;;7.47;5.45;;;;;;;14.26;nan;100491.16;4919755;29;20685;-79
2023/10/08 07:41:40;;;;;;;7.70;5.75;;;;;;;14.46;nan;100491.63;4920042;29;21018;-79
2023/10/08 07:44:07;;;;;;;7.50;3.47;;;;;;;14.65;nan;100488.66;4918324;29;20217;-79
2023/10/08 07:46:33;;;;;;;6.05;4.38;;;;;;;14.83;nan;100484.78;4922002;29;20208;-79
2023/10/08 07:48:58;;;;;;;7.83;4.00;;;;;;;15.03;nan;100484.25;4918830;29;20201;-79
2023/10/08 07:51:24;;;;;;;7.83;4.23;;;;;;;15.21;nan;100495.41;4920602;29;20446;-78
2023/10/08 07:53:56;;;;;;;10.77;5.03;;;;;;;15.40;nan;100494.13;4918801;29;20661;-79
2023/10/08 07:56:23;;;;;;;7.25;4.03;;;;;;;15.57;nan;100488.47;4918959;29;20194;-78
2023/10/08 07:58:49;;;;;;;9.13;4.40;;;;;;;15.75;nan;100488.19;4920169;29;20206;-79
2023/10/08 08:01:15;;;;;;;6.40;4.20;;;;;;;16.08;nan;100488.41;4921308;29;20221;-79
2023/10/08 08:03:41;;;;;;;6.07;3.70;;;;;;;16.84;nan;100486.34;4920522;29;20952;-79
2023/10/08 08:06:08;;;;;;;9.50;4.07;;;;;;;17.68;nan;100478.97;4922073;29;20206;-79
2023/10/08 08:08:38;;;;;;;5.63;3.50;;;;;;;18.55;nan;100473.69;4924249;29;20584;-79
2023/10/08 08:11:11;;;;;;;6.80;4.47;;;;;;;19.53;nan;100468.03;4925556;29;20237;-79
2023/10/08 08:13:39;;;;;;;6.37;4.20;;;;;;;20.53;nan;100462.66;4927608;29;20580;-79
2023/10/08 08:16:17;;;;;;;9.50;4.20;;;;;;;21.31;nan;100457.16;4925294;29;21169;-79
2023/10/08 08:18:46;;;;;;;4.13;3.60;;;;;;;22.05;nan;100450.03;4926204;29;20457;-80
2023/10/08 08:21:15;;;;;;;4.57;2.60;;;;;;;22.63;nan;100451.44;4925248;29;20563;-79
2023/10/08 08:23:50;;;;;;;7.27;4.13;;;;;;;23.04;nan;100449.94;4924022;29;20484;-79
2023/10/08 08:26:26;;;;;;;6.87;4.10;;;;;;;23.39;nan;100445.44;4917605;29;20527;-80
2023/10/08 08:28:59;;;;;;;7.23;4.70;;;;;;;23.70;nan;100448.41;4924353;29;20500;-80
2023/10/08 08:31:26;;;;;;;6.87;2.80;;;;;;;24.19;nan;100448.56;4923888;29;20449;-80
2023/10/08 08:33:53;;;;;;;9.07;3.97;;;;;;;24.60;nan;100450.47;4923029;29;20509;-79
2023/10/08 08:36:22;;;;;;;7.37;3.47;;;;;;;24.83;nan;100446.09;4937859;23;20489;-76
2023/10/08 08:38:48;;;;;;;4.87;3.80;;;;;;;24.98;nan;100443.56;4926275;28;21032;-74
2023/10/08 08:41:17;;;;;;;8.20;3.60;;;;;;;24.48;nan;100447.28;4930417;28;20468;-74
2023/10/08 08:43:57;;;;;;;6.50;3.77;;;;;;;23.89;nan;100452.69;4935614;28;20486;-75
2023/10/08 08:46:37;;;;;;;4.97;3.93;;;;;;;23.36;nan;100457.34;4925808;29;20500;-75
2023/10/08 08:49:07;;;;;;;6.83;3.43;;;;;;;23.13;nan;100466.91;4927066;28;21246;-76
2023/10/08 08:51:35;;;;;;;7.30;3.90;;;;;;;23.35;nan;100455.63;4923803;29;20530;-75
2023/10/08 08:54:08;;;;;;;7.10;3.50;;;;;;;23.87;nan;100457.38;4924541;28;20444;-76
2023/10/08 08:56:38;;;;;;;5.90;3.00;;;;;;;24.37;nan;100448.44;4924323;29;20477;-75
2023/10/08 08:59:11;;;;;;;5.40;3.37;;;;;;;24.82;nan;100441.75;4926985;29;20427;-76
2023/10/08 09:01:38;;;;;;;4.50;3.27;;;;;;;25.10;nan;100447.56;4923761;28;20483;-76
2023/10/08 09:04:07;;;;;;;5.53;3.07;;;;;;;25.12;nan;100450.09;4925178;28;20469;-76
2023/10/08 09:06:37;;;;;;;11.10;4.43;;;;;;;25.22;nan;100450.78;4929177;28;20532;-76
2023/10/08 09:09:40;;;;;;;8.40;3.30;;;;;;;25.29;nan;100465.19;4932400;29;20452;-76
2023/10/08 09:11:59;;;;;;;9.23;4.03;;;;;;;25.29;nan;100467.88;4921316;29;21003;-75
2023/10/08 09:14:26;;;;;;;7.23;3.37;;;;;;;25.12;nan;100456.31;4924753;29;20522;-75
2023/10/08 09:16:54;;;;;;;5.80;3.60;;;;;;;24.79;nan;100454.66;4923554;29;20478;-75
2023/10/08 09:19:22;;;;;;;5.67;2.70;;;;;;;24.43;nan;100460.34;4927905;29;20468;-75
2023/10/08 09:22:03;;;;;;;10.20;4.20;;;;;;;24.09;nan;100458.63;4925240;28;21010;-76
2023/10/08 09:24:33;;;;;;;7.90;4.07;;;;;;;23.89;nan;100462.59;4926643;29;20839;-76
2023/10/08 09:27:01;;;;;;;6.97;2.80;;;;;;;23.81;nan;100458.03;4925554;29;20552;-75
2023/10/08 09:29:27;;;;;;;8.80;4.00;;;;;;;23.67;nan;100454.09;4922659;29;20447;-75
2023/10/08 09:31:55;;;;;;;10.80;4.23;;;;;;;23.53;nan;100454.72;4926095;29;20464;-75
2023/10/08 09:34:29;;;;;;;8.30;3.20;;;;;;;23.53;nan;100452.03;4925264;29;20294;-76
2023/10/08 09:36:56;;;;;;;5.00;3.43;;;;;;;23.49;nan;100448.00;4925653;29;20457;-75
2023/10/08 09:39:26;;;;;;;7.97;3.40;;;;;;;23.52;nan;100450.34;4922192;28;20990;-75
2023/10/08 09:41:57;;;;;;;6.47;3.00;;;;;;;23.55;nan;100450.88;4925801;29;20493;-75
2023/10/08 09:44:24;;;;;;;5.77;3.30;;;;;;;23.48;nan;100455.19;4923442;29;21025;-75
2023/10/08 09:47:12;;;;;;;5.43;3.63;;;;;;;23.33;nan;100454.13;4925838;29;20486;-75
2023/10/08 09:49:43;;;;;;;5.13;4.30;;;;;;;23.17;nan;100462.94;4921922;29;21045;-75
2023/10/08 09:52:10;;;;;;;5.03;3.33;;;;;;;22.95;nan;100466.91;4926395;29;20626;-76
2023/10/08 09:55:10;;;;;;;8.17;4.30;;;;;;;22.82;nan;100464.66;4918877;28;20532;-76
2023/10/08 09:57:36;;;;;;;8.33;3.53;;;;;;;22.74;nan;100468.13;4920201;28;20530;-75
2023/10/08 10:00:05;;;;;;;7.30;3.37;;;;;;;22.61;nan;100467.69;4925284;28;20544;-75
2023/10/08 10:02:32;;;;;;;9.83;5.63;;;;;;;22.52;nan;100468.59;4928205;28;20725;-74
2023/10/08 10:04:57;;;;;;;7.10;4.30;;;;;;;22.47;nan;100477.09;4923937;28;20476;-75
2023/10/08 10:07:25;;;;;;;5.60;3.40;;;;;;;22.41;nan;100471.50;4931752;28;20455;-75
2023/10/08 10:09:53;;;;;;;7.07;2.93;;;;;;;22.41;nan;100476.84;4923940;29;20862;-75
2023/10/08 10:12:26;;;;;;;8.10;4.30;;;;;;;22.38;nan;100474.47;4926093;29;20427;-74
2023/10/08 10:14:55;;;;;;;8.67;4.37;;;;;;;22.30;nan;100481.47;4927882;29;20470;-75
2023/10/08 10:17:22;;;;;;;5.63;3.10;;;;;;;22.16;nan;100484.59;4922116;28;20442;-75
2023/10/08 10:20:00;;;;;;;7.23;4.33;;;;;;;22.07;nan;100480.19;4925445;28;20539;-75
2023/10/08 10:22:30;;;;;;;8.63;4.83;;;;;;;22.05;nan;100492.84;4926352;28;20491;-76
2023/10/08 10:24:57;;;;;;;6.30;3.50;;;;;;;22.14;nan;100485.75;4925905;28;20818;-76
2023/10/08 10:27:23;;;;;;;6.20;3.03;;;;;;;22.27;nan;100487.09;4926573;28;20877;-76
2023/10/08 10:29:48;;;;;;;7.37;3.27;;;;;;;22.52;nan;100485.50;4926426;28;20449;-76
2023/10/08 10:32:15;;;;;;;9.47;3.07;;;;;;;22.69;nan;100482.97;4929283;29;20200;-76
2023/10/08 10:34:44;;;;;;;6.83;3.77;;;;;;;22.80;nan;100482.72;4928049;28;20244;-76
2023/10/08 10:37:19;;;;;;;6.67;3.27;;;;;;;22.86;nan;100483.94;4923152;29;20461;-76
2023/10/08 10:39:54;;;;;;;10.63;3.23;;;;;;;22.92;nan;100481.47;4922872;29;20774;-76
2023/10/08 10:42:20;;;;;;;6.80;3.47;;;;;;;22.94;nan;100478.63;4923214;29;20477;-76
2023/10/08 10:44:50;;;;;;;7.30;4.23;;;;;;;23.03;nan;100482.25;4926237;29;20520;-77
2023/10/08 10:49:54;;;;;;;5.97;3.40;;;;;;;23.27;nan;100476.19;4920607;28;20446;-76
2023/10/08 10:52:44;;;;;;;6.77;2.93;;;;;;;23.41;nan;100471.09;4915253;28;20555;-76
2023/10/08 10:57:41;;;;;;;5.83;3.03;;;;;;;23.66;nan;100467.69;4911168;29;20469;-76
2023/10/08 11:02:56;;;;;;;13.53;3.63;;;;;;;23.90;nan;100462.44;4913532;29;20686;-75
2023/10/08 11:05:28;;;;;;;9.03;4.00;;;;;;;24.01;nan;100462.13;4917432;29;20456;-76
2023/10/08 11:08:04;;;;;;;10.73;3.90;;;;;;;24.12;nan;100454.78;4918895;29;20449;-76
2023/10/08 11:10:34;;;;;;;10.60;4.33;;;;;;;24.21;nan;100454.63;4911169;29;20447;-76
2023/10/08 11:13:01;;;;;;;7.63;3.27;;;;;;;24.24;nan;100448.91;4911918;29;20444;-75
2023/10/08 11:15:37;;;;;;;4.30;3.30;;;;;;;24.21;nan;100448.41;4908945;29;20532;-76
2023/10/08 11:18:17;;;;;;;7.90;3.27;;;;;;;24.17;nan;100447.06;4906651;29;20444;-76
2023/10/08 11:20:46;;;;;;;9.00;4.10;;;;;;;24.13;nan;100443.88;4910407;29;20595;-75
2023/10/08 11:23:41;;;;;;;6.93;3.93;;;;;;;24.11;nan;100439.66;4909176;29;20460;-75
2023/10/08 11:26:07;;;;;;;8.53;3.40;;;;;;;24.12;nan;100441.38;4909410;29;20529;-76
2023/10/08 11:28:41;;;;;;;10.10;3.87;;;;;;;24.10;nan;100438.00;4914342;28;20448;-75
2023/10/08 11:31:09;;;;;;;15.20;3.43;;;;;;;24.13;nan;100435.81;4910633;28;20262;-76
2023/10/08 11:33:39;;;;;;;7.50;2.80;;;;;;;24.18;nan;100429.97;4911736;28;20541;-76
2023/10/08 11:36:18;;;;;;;7.40;3.37;;;;;;;24.22;nan;100428.59;4909559;29;20553;-75
2023/10/08 11:38:48;;;;;;;6.17;3.43;;;;;;;24.28;nan;100431.47;4912492;28;20444;-75
2023/10/08 11:41:21;;;;;;;11.63;3.33;;;;;;;24.37;nan;100426.13;4914449;28;20668;-76
2023/10/08 11:43:53;;;;;;;6.20;2.83;;;;;;;24.44;nan;100417.25;4916290;28;20462;-76
2023/10/08 11:46:27;;;;;;;6.73;3.27;;;;;;;24.52;nan;100413.75;4907546;29;21446;-75
2023/10/08 11:48:58;;;;;;;7.20;3.30;;;;;;;24.57;nan;100410.53;4908681;29;20461;-76
2023/10/08 11:51:24;;;;;;;8.87;3.73;;;;;;;24.64;nan;100408.84;4912829;29;20839;-76
2023/10/08 11:53:51;;;;;;;9.47;2.73;;;;;;;24.69;nan;100401.13;4912516;29;20841;-76
2023/10/08 11:56:20;;;;;;;6.40;3.30;;;;;;;24.76;nan;100401.28;4911598;29;20455;-76
2023/10/08 11:58:46;;;;;;;7.20;3.10;;;;;;;24.81;nan;100401.59;4908382;29;20438;-76
2023/10/08 12:01:15;;;;;;;5.43;2.60;;;;;;;24.86;nan;100397.38;4908146;29;20798;-76
2023/10/08 12:03:50;;;;;;;5.63;3.10;;;;;;;24.89;nan;100401.59;4905253;29;20215;-76
2023/10/08 12:06:18;;;;;;;7.13;2.40;;;;;;;24.88;nan;100400.75;4902302;29;20500;-76
2023/10/08 12:08:53;;;;;;;3.90;3.10;;;;;;;24.87;nan;100393.72;4907280;28;20439;-76
2023/10/08 12:11:19;;;;;;;5.93;3.20;;;;;;;24.93;nan;100386.81;4919366;28;20477;-76
2023/10/08 12:13:45;;;;;;;8.27;3.00;;;;;;;25.01;nan;100385.94;4906584;29;20426;-77
2023/10/08 12:16:23;;;;;;;5.33;2.73;;;;;;;25.09;nan;100384.06;4906384;29;20495;-76
2023/10/08 12:18:58;;;;;;;4.63;3.40;;;;;;;25.12;nan;100377.50;4904929;29;20260;-76
2023/10/08 12:21:30;;;;;;;7.63;2.43;;;;;;;25.13;nan;100365.72;4906418;29;20460;-76
2023/10/08 12:24:01;;;;;;;7.37;3.50;;;;;;;25.15;nan;100366.44;4908873;29;20447;-76
2023/10/08 12:26:26;;;;;;;6.63;3.07;;;;;;;25.19;nan;100361.53;4906031;29;20510;-76
2023/10/08 12:28:53;;;;;;;6.67;2.80;;;;;;;25.26;nan;100359.84;4908157;29;20436;-76
2023/10/08 12:31:24;;;;;;;8.67;3.83;;;;;;;25.35;nan;100359.63;4914360;28;20300;-76
2023/10/08 12:33:53;;;;;;;6.03;2.67;;;;;;;25.44;nan;100351.50;4908141;29;20550;-76
2023/10/08 12:36:23;;;;;;;6.43;2.90;;;;;;;25.53;nan;100356.69;4907643;29;20525;-76
2023/10/08 12:38:57;;;;;;;7.03;3.33;;;;;;;25.58;nan;100342.69;4908382;29;20462;-76
2023/10/08 12:41:24;;;;;;;8.80;3.40;;;;;;;25.61;nan;100348.56;4908032;29;20460;-76
2023/10/08 12:43:52;;;;;;;7.10;3.00;;;;;;;25.63;nan;100345.69;4909651;29;20967;-76
2023/10/08 12:46:18;;;;;;;6.80;3.00;;;;;;;25.64;nan;100347.38;4905766;29;21200;-75
2023/10/08 12:48:47;;;;;;;8.57;4.50;;;;;;;25.65;nan;100346.34;4909213;29;20522;-76